createdAt,value
2023-03-17T00:00:50.203Z,2.83
2023-03-17T00:03:26.960Z,2.50
2023-03-17T00:05:56.827Z,2.90
2023-03-17T00:08:29.686Z,2.80
2023-03-17T00:10:57.925Z,2.72
2023-03-17T00:13:26.995Z,2.65
2023-03-17T00:16:07.574Z,2.60
2023-03-17T00:18:38.246Z,2.85
2023-03-17T00:21:10.303Z,2.50
2023-03-17T00:23:38.805Z,2.95
2023-03-17T00:26:07.083Z,3.03
2023-03-17T00:28:35.342Z,2.72
2023-03-17T00:31:18.927Z,3.08
2023-03-17T00:33:48.616Z,2.75
2023-03-17T00:36:22.771Z,2.67
2023-03-17T00:38:52.688Z,2.70
2023-03-17T00:41:22.459Z,2.67
2023-03-17T00:43:51.047Z,2.60
2023-03-17T00:46:25.153Z,2.85
2023-03-17T00:48:56.345Z,2.83
2023-03-17T00:51:27.076Z,2.92
2023-03-17T00:53:56.578Z,2.97
2023-03-17T00:56:24.780Z,2.63
2023-03-17T00:58:52.926Z,2.55
2023-03-17T01:01:21.071Z,3.40
2023-03-17T01:03:49.283Z,3.00
2023-03-17T01:06:17.776Z,2.90
2023-03-17T01:08:46.601Z,3.03
2023-03-17T01:11:19.724Z,2.90
2023-03-17T01:13:49.338Z,2.70
2023-03-17T01:16:18.729Z,2.67
2023-03-17T01:18:49.454Z,3.10
2023-03-17T01:21:17.909Z,2.72
2023-03-17T01:23:47.678Z,2.88
2023-03-17T01:26:15.844Z,2.60
2023-03-17T01:28:44.042Z,3.00
2023-03-17T01:31:12.702Z,2.63
2023-03-17T01:33:43.371Z,2.67
2023-03-17T01:36:12.157Z,2.75
2023-03-17T01:38:40.915Z,2.70
2023-03-17T01:41:08.928Z,2.85
2023-03-17T01:43:38.443Z,2.90
2023-03-17T01:46:31.753Z,3.13
2023-03-17T01:49:15.731Z,3.00
2023-03-17T01:51:57.523Z,2.92
2023-03-17T01:54:45.514Z,2.70
2023-03-17T01:57:40.228Z,2.78
2023-03-17T02:00:14.850Z,3.22
2023-03-17T02:02:47.846Z,3.33
2023-03-17T02:05:19.129Z,2.80
2023-03-17T02:07:47.559Z,2.90
2023-03-17T02:10:21.742Z,3.00
2023-03-17T02:12:55.840Z,2.90
2023-03-17T02:15:24.728Z,2.78
2023-03-17T02:17:52.824Z,3.10
2023-03-17T02:20:23.629Z,2.75
2023-03-17T02:22:53.830Z,2.67
2023-03-17T02:25:23.423Z,2.67
2023-03-17T02:27:55.919Z,3.17
2023-03-17T02:30:28.156Z,3.00
2023-03-17T02:32:57.282Z,2.50
2023-03-17T02:35:25.234Z,2.90
2023-03-17T02:37:53.049Z,3.22
2023-03-17T02:40:22.216Z,3.00
2023-03-17T02:42:50.194Z,3.10
2023-03-17T02:45:18.627Z,3.03
2023-03-17T02:47:47.712Z,2.60
2023-03-17T02:50:23.016Z,3.10
2023-03-17T02:52:51.366Z,3.03
2023-03-17T02:55:20.350Z,3.17
2023-03-17T02:57:48.118Z,2.85
2023-03-17T03:00:16.203Z,3.25
2023-03-17T03:02:44.100Z,2.75
2023-03-17T03:05:11.970Z,2.63
2023-03-17T03:07:40.214Z,3.10
2023-03-17T03:10:09.278Z,2.90
2023-03-17T03:12:37.168Z,3.00
2023-03-17T03:15:05.558Z,2.97
2023-03-17T03:17:33.550Z,2.95
2023-03-17T03:20:01.467Z,2.72
2023-03-17T03:22:29.478Z,2.90
2023-03-17T03:24:57.377Z,3.08
2023-03-17T03:27:25.661Z,2.83
2023-03-17T03:29:53.612Z,2.47
2023-03-17T03:32:21.413Z,3.05
2023-03-17T03:34:49.224Z,2.85
2023-03-17T03:37:17.116Z,2.60
2023-03-17T03:39:45.784Z,2.95
2023-03-17T03:42:13.622Z,3.05
2023-03-17T03:44:42.467Z,2.75
2023-03-17T03:47:10.654Z,2.80
2023-03-17T03:49:38.704Z,2.70
2023-03-17T03:52:06.794Z,2.92
2023-03-17T03:54:35.796Z,2.35
2023-03-17T03:57:03.740Z,2.78
2023-03-17T03:59:31.724Z,2.75
2023-03-17T04:01:59.564Z,2.83
2023-03-17T04:04:27.398Z,2.70
2023-03-17T04:06:55.230Z,2.85
2023-03-17T04:09:24.048Z,2.60
2023-03-17T04:11:52.040Z,2.60
2023-03-17T04:14:19.953Z,2.63
2023-03-17T04:16:47.866Z,2.45
2023-03-17T04:19:15.784Z,2.90
2023-03-17T04:21:43.579Z,2.17
2023-03-17T04:24:11.385Z,2.75
2023-03-17T04:26:41.352Z,2.53
2023-03-17T04:29:10.716Z,2.38
2023-03-17T04:31:39.957Z,2.15
2023-03-17T04:34:10.358Z,2.58
2023-03-17T04:36:39.351Z,2.60
2023-03-17T04:39:07.539Z,2.50
2023-03-17T04:41:35.653Z,2.33
2023-03-17T04:44:03.570Z,2.35
2023-03-17T04:46:32.016Z,2.40
2023-03-17T04:49:00.164Z,2.72
2023-03-17T04:51:28.314Z,2.58
2023-03-17T04:53:56.278Z,2.20
2023-03-17T04:56:24.178Z,2.50
2023-03-17T04:58:52.104Z,2.08
2023-03-17T05:01:21.501Z,2.50
2023-03-17T05:03:50.075Z,2.67
2023-03-17T05:06:17.984Z,2.25
2023-03-17T05:08:47.776Z,2.75
2023-03-17T05:11:16.234Z,2.63
2023-03-17T05:13:44.058Z,2.20
2023-03-17T05:16:12.650Z,2.50
2023-03-17T05:18:41.897Z,2.50
2023-03-17T05:21:10.285Z,2.58
2023-03-17T05:23:38.287Z,2.55
2023-03-17T05:26:06.590Z,2.22
2023-03-17T05:28:34.386Z,2.50
2023-03-17T05:31:05.362Z,2.55
2023-03-17T05:33:33.270Z,2.47
2023-03-17T05:36:01.581Z,2.20
2023-03-17T05:38:29.651Z,2.47
2023-03-17T05:41:00.170Z,2.58
2023-03-17T05:43:28.038Z,2.33
2023-03-17T05:45:56.131Z,2.30
2023-03-17T05:48:24.173Z,2.40
2023-03-17T05:50:52.073Z,2.25
2023-03-17T05:53:20.816Z,2.90
2023-03-17T05:55:48.809Z,2.33
2023-03-17T05:58:17.073Z,2.60
2023-03-17T06:00:45.256Z,2.80
2023-03-17T06:03:13.370Z,2.45
2023-03-17T06:05:41.285Z,2.50
2023-03-17T06:08:10.280Z,2.70
2023-03-17T06:10:38.135Z,2.80
2023-03-17T06:13:05.989Z,3.33
2023-03-17T06:15:36.235Z,3.25
2023-03-17T06:18:05.691Z,3.20
2023-03-17T06:20:34.677Z,3.10
2023-03-17T06:23:05.269Z,3.10
2023-03-17T06:25:38.639Z,3.17
2023-03-17T06:28:07.616Z,3.28
2023-03-17T06:30:40.415Z,3.05
2023-03-17T06:33:08.999Z,3.03
2023-03-17T06:35:39.334Z,3.25
2023-03-17T06:38:07.695Z,3.25
2023-03-17T06:40:36.084Z,2.80
2023-03-17T06:43:04.606Z,3.00
2023-03-17T06:45:33.211Z,2.97
2023-03-17T06:48:02.438Z,3.13
2023-03-17T06:50:30.446Z,3.03
2023-03-17T06:52:58.467Z,3.38
2023-03-17T06:55:27.687Z,3.08
2023-03-17T06:57:56.169Z,3.20
2023-03-17T07:00:26.306Z,3.15
2023-03-17T07:02:54.439Z,2.78
2023-03-17T07:05:23.146Z,3.30
2023-03-17T07:07:53.170Z,3.03
2023-03-17T07:10:23.648Z,2.92
2023-03-17T07:12:52.986Z,2.95
2023-03-17T07:15:22.624Z,3.00
2023-03-17T07:17:52.605Z,3.00
2023-03-17T07:20:21.817Z,3.30
2023-03-17T07:22:50.024Z,2.90
2023-03-17T07:25:18.837Z,2.90
2023-03-17T07:27:48.820Z,3.10
2023-03-17T07:30:19.372Z,2.92
2023-03-17T07:32:51.207Z,2.95
2023-03-17T07:35:21.010Z,3.08
2023-03-17T07:37:51.712Z,2.70
2023-03-17T07:40:20.248Z,3.10
2023-03-17T07:42:50.457Z,2.88
2023-03-17T07:45:19.183Z,2.83
2023-03-17T07:47:52.044Z,2.80
2023-03-17T07:50:20.618Z,3.17
2023-03-17T07:53:18.819Z,3.13
2023-03-17T07:55:56.420Z,3.10
2023-03-17T07:58:25.977Z,2.90
2023-03-17T08:01:03.301Z,2.75
2023-03-17T08:03:56.739Z,2.72
2023-03-17T08:06:28.265Z,3.10
2023-03-17T08:09:27.113Z,3.00
2023-03-17T08:12:03.651Z,2.97
2023-03-17T08:14:33.395Z,3.00
2023-03-17T08:17:11.397Z,2.70
2023-03-17T08:19:39.834Z,2.88
2023-03-17T08:22:11.056Z,2.80
2023-03-17T08:24:44.293Z,2.78
2023-03-17T08:27:15.117Z,2.45
2023-03-17T08:29:43.913Z,2.55
2023-03-17T08:32:12.797Z,2.80
2023-03-17T08:34:41.058Z,2.30
2023-03-17T08:37:12.922Z,2.65
2023-03-17T08:39:42.657Z,2.50
2023-03-17T08:42:13.082Z,2.92
2023-03-17T08:44:44.142Z,2.45
2023-03-17T08:47:28.385Z,2.35
2023-03-17T08:50:00.852Z,3.22
2023-03-17T08:52:29.685Z,2.40
2023-03-17T08:55:01.947Z,2.40
2023-03-17T08:57:30.567Z,2.55
2023-03-17T09:00:01.238Z,2.35
2023-03-17T09:02:29.621Z,2.10
2023-03-17T09:04:58.090Z,2.58
2023-03-17T09:07:26.058Z,2.50
2023-03-17T09:09:55.153Z,2.30
2023-03-17T09:12:23.867Z,2.50
2023-03-17T09:14:57.969Z,2.65
2023-03-17T09:17:26.273Z,2.75
2023-03-17T09:19:59.943Z,2.28
2023-03-17T09:22:33.509Z,2.28
2023-03-17T09:25:06.817Z,2.42
2023-03-17T09:27:43.518Z,2.40
2023-03-17T09:30:13.594Z,2.67
2023-03-17T09:32:44.993Z,2.60
2023-03-17T09:35:14.478Z,2.55
2023-03-17T09:37:42.715Z,2.42
2023-03-17T09:40:18.080Z,2.72
2023-03-17T09:42:50.292Z,2.50
2023-03-17T09:45:28.854Z,2.70
2023-03-17T09:48:27.844Z,2.40
2023-03-17T09:51:18.900Z,2.60
2023-03-17T09:54:09.210Z,2.70
2023-03-17T09:56:42.868Z,3.25
2023-03-17T09:59:41.514Z,2.47
2023-03-17T10:02:20.053Z,2.70
2023-03-17T10:04:51.893Z,2.80
2023-03-17T10:07:39.949Z,2.90
2023-03-17T10:10:35.127Z,2.88
2023-03-17T10:13:27.486Z,3.05
2023-03-17T10:16:21.885Z,3.05
2023-03-17T10:18:58.736Z,2.80
2023-03-17T10:21:32.583Z,2.72
2023-03-17T10:24:29.756Z,3.00
2023-03-17T10:27:02.997Z,2.70
2023-03-17T10:29:32.797Z,3.13
2023-03-17T10:32:02.884Z,2.80
2023-03-17T10:34:33.810Z,3.17
2023-03-17T10:37:07.593Z,2.60
2023-03-17T10:39:50.732Z,2.55
2023-03-17T10:42:29.351Z,3.20
2023-03-17T10:45:32.531Z,2.78
2023-03-17T10:48:04.375Z,2.83
2023-03-17T10:50:37.750Z,3.17
2023-03-17T10:53:10.942Z,2.85
2023-03-17T10:55:49.855Z,2.70
2023-03-17T10:58:34.759Z,2.95
2023-03-17T11:01:40.235Z,3.13
2023-03-17T11:04:46.889Z,3.15
2023-03-17T11:07:50.517Z,3.38
2023-03-17T11:10:27.397Z,3.38
2023-03-17T11:13:02.025Z,3.05
2023-03-17T11:15:36.826Z,3.25
2023-03-17T11:21:23.131Z,2.78
2023-03-17T11:23:59.528Z,2.90
2023-03-17T11:26:55.333Z,3.00
2023-03-17T11:29:44.524Z,3.20
2023-03-17T11:32:25.612Z,3.40
2023-03-17T11:35:09.218Z,3.40
2023-03-17T11:37:59.144Z,3.45
2023-03-17T11:40:32.108Z,3.42
2023-03-17T11:43:15.512Z,3.63
2023-03-17T11:45:57.298Z,3.33
2023-03-17T11:48:53.145Z,3.60
2023-03-17T11:51:23.107Z,3.67
2023-03-17T11:54:14.329Z,3.17
2023-03-17T11:57:00.154Z,3.50
2023-03-17T11:59:46.277Z,3.67
2023-03-17T12:02:42.918Z,3.67
2023-03-17T12:05:16.930Z,3.40
2023-03-17T12:07:57.485Z,3.65
2023-03-17T12:10:34.928Z,3.50
2023-03-17T12:13:15.107Z,3.42
2023-03-17T12:16:11.103Z,3.40
2023-03-17T12:19:26.290Z,3.60
2023-03-17T12:22:02.850Z,3.78
2023-03-17T12:24:57.441Z,3.50
2023-03-17T12:27:37.416Z,3.63
2023-03-17T12:30:35.490Z,3.92
2023-03-17T12:33:16.033Z,3.90
2023-03-17T12:35:47.828Z,3.88
2023-03-17T12:38:38.188Z,3.78
2023-03-17T12:41:36.408Z,3.95
2023-03-17T12:44:07.950Z,3.85
2023-03-17T12:46:44.089Z,3.63
2023-03-17T12:49:12.367Z,3.47
2023-03-17T12:51:59.087Z,3.78
2023-03-17T12:54:30.755Z,3.75
2023-03-17T12:57:19.732Z,3.88
2023-03-17T12:59:56.766Z,3.58
2023-03-17T13:02:38.158Z,4.25
2023-03-17T13:05:10.132Z,3.50
2023-03-17T13:07:45.084Z,3.97
2023-03-17T13:10:38.366Z,4.70
2023-03-17T13:13:45.073Z,4.13
2023-03-17T13:16:34.750Z,3.70
2023-03-17T13:19:23.328Z,3.70
2023-03-17T13:22:00.753Z,3.85
2023-03-17T13:24:53.569Z,3.83
2023-03-17T13:27:31.187Z,3.65
2023-03-17T13:30:26.917Z,3.20
2023-03-17T13:33:24.087Z,3.67
2023-03-17T13:36:14.512Z,3.38
2023-03-17T13:39:18.643Z,3.70
2023-03-17T13:45:52.020Z,3.47
2023-03-17T13:48:37.275Z,3.60
2023-03-17T13:51:24.798Z,3.10
2023-03-17T13:54:06.757Z,3.50
2023-03-17T13:56:38.715Z,3.60
2023-03-17T13:59:16.963Z,3.15
2023-03-17T14:01:55.806Z,3.65
2023-03-17T14:04:30.172Z,4.60
2023-03-17T14:07:05.713Z,3.40
2023-03-17T14:09:40.556Z,3.35
2023-03-17T14:12:51.131Z,3.20
2023-03-17T14:15:47.998Z,3.35
2023-03-17T14:18:23.360Z,3.38
2023-03-17T14:20:59.476Z,3.70
2023-03-17T14:23:32.451Z,3.72
2023-03-17T14:26:06.282Z,3.38
2023-03-17T14:28:35.654Z,3.45
2023-03-17T14:31:07.767Z,3.60
2023-03-17T14:33:42.187Z,3.47
2023-03-17T14:36:14.706Z,3.63
2023-03-17T14:38:52.030Z,3.45
2023-03-17T14:41:28.074Z,3.65
2023-03-17T14:44:02.479Z,3.67
2023-03-17T14:46:44.309Z,3.95
2023-03-17T14:49:24.744Z,3.63
2023-03-17T14:51:54.858Z,3.15
2023-03-17T14:54:42.440Z,3.35
2023-03-17T14:57:18.567Z,3.58
2023-03-17T15:00:02.429Z,3.67
2023-03-17T15:02:37.956Z,3.78
2023-03-17T15:05:11.881Z,4.00
2023-03-17T15:07:42.484Z,3.85
2023-03-17T15:10:20.566Z,4.30
2023-03-17T15:12:49.551Z,4.05
2023-03-17T15:15:29.034Z,4.15
2023-03-17T15:18:01.504Z,4.10
2023-03-17T15:20:33.604Z,4.00
2023-03-17T15:23:20.007Z,4.18
2023-03-17T16:40:19.293Z,5.78
2023-03-17T16:45:47.877Z,5.38
2023-03-17T17:02:33.809Z,5.55
2023-03-17T17:05:17.083Z,6.20
2023-03-17T17:07:49.085Z,6.20
2023-03-17T17:16:06.361Z,6.57
2023-03-17T17:18:39.862Z,7.40
2023-03-17T17:21:13.018Z,6.70
2023-03-17T17:23:46.744Z,6.43
2023-03-17T17:31:52.639Z,5.97
2023-03-17T17:34:31.726Z,7.32
2023-03-17T17:57:26.213Z,9.07
2023-03-17T18:00:11.676Z,8.98
2023-03-17T18:02:45.771Z,8.43
2023-03-17T18:05:16.157Z,8.70
2023-03-17T18:07:45.346Z,8.68
2023-03-17T18:10:29.192Z,8.18
2023-03-17T18:15:47.761Z,7.90
2023-03-17T18:21:20.347Z,7.30
2023-03-17T18:23:50.118Z,7.28
2023-03-17T18:26:20.602Z,8.23
2023-03-17T18:28:49.465Z,8.00
2023-03-17T18:31:38.036Z,8.45
2023-03-17T18:34:21.961Z,8.40
2023-03-17T18:36:52.218Z,8.60
2023-03-17T18:39:20.669Z,9.80
2023-03-17T18:41:49.458Z,13.50
2023-03-17T18:44:19.024Z,10.75
2023-03-17T18:46:47.501Z,9.30
2023-03-17T18:49:15.736Z,10.57
2023-03-17T18:51:43.882Z,12.80
2023-03-17T18:54:12.059Z,10.38
2023-03-17T18:56:40.169Z,10.18
2023-03-17T18:59:08.460Z,9.60
2023-03-17T19:01:36.913Z,8.80
2023-03-17T19:04:05.838Z,9.00
2023-03-17T19:06:38.401Z,10.18
2023-03-17T19:09:09.194Z,9.70
2023-03-17T19:11:42.685Z,11.48
2023-03-17T19:14:12.026Z,10.10
2023-03-17T19:16:40.380Z,9.65
2023-03-17T19:19:08.739Z,10.18
2023-03-17T19:21:40.432Z,10.98
2023-03-17T19:24:11.230Z,9.70
2023-03-17T19:26:40.688Z,10.10
2023-03-17T19:29:10.107Z,8.85
2023-03-17T19:31:41.664Z,8.32
2023-03-17T19:34:14.345Z,9.02
2023-03-17T19:36:46.533Z,8.63
2023-03-17T19:39:25.811Z,8.80
2023-03-17T19:41:59.343Z,8.45
2023-03-17T19:44:27.962Z,7.82
2023-03-17T19:46:58.612Z,7.55
2023-03-17T19:50:06.344Z,7.25
2023-03-17T19:52:35.162Z,7.00
2023-03-17T19:55:12.296Z,7.10
2023-03-17T19:57:43.854Z,7.47
2023-03-17T20:00:17.042Z,6.90
2023-03-17T20:02:46.340Z,7.57
2023-03-17T20:05:14.804Z,6.72
2023-03-17T20:07:43.094Z,6.63
2023-03-17T20:10:13.074Z,5.97
2023-03-17T20:12:42.697Z,6.13
2023-03-17T20:15:13.361Z,5.82
2023-03-17T20:17:50.349Z,5.55
2023-03-17T20:20:19.258Z,5.35
2023-03-17T20:22:48.164Z,5.47
2023-03-17T20:25:19.261Z,5.55
2023-03-17T20:27:47.304Z,5.13
2023-03-17T20:30:20.185Z,4.93
2023-03-17T20:32:51.167Z,5.10
2023-03-17T20:35:22.568Z,4.30
2023-03-17T20:37:56.446Z,4.03
2023-03-17T20:40:27.823Z,4.30
2023-03-17T20:42:55.970Z,3.60
2023-03-17T20:45:24.551Z,4.00
2023-03-17T20:47:52.675Z,3.63
2023-03-17T20:50:21.248Z,3.30
2023-03-17T20:52:49.771Z,3.30
2023-03-17T20:55:20.882Z,3.35
2023-03-17T20:57:49.828Z,3.58
2023-03-17T21:00:22.371Z,2.85
2023-03-17T21:02:53.782Z,2.85
2023-03-17T21:05:25.248Z,2.58
2023-03-17T21:07:53.713Z,2.47
2023-03-17T21:10:22.004Z,2.60
2023-03-17T21:12:50.127Z,2.60
2023-03-17T21:15:19.533Z,2.85
2023-03-17T21:17:47.773Z,2.63
2023-03-17T21:20:16.480Z,2.60
2023-03-17T21:22:46.040Z,2.90
2023-03-17T21:25:14.824Z,2.40
2023-03-17T21:27:43.313Z,2.55
2023-03-17T21:30:14.355Z,2.22
2023-03-17T21:32:43.050Z,2.53
2023-03-17T21:35:11.215Z,2.83
2023-03-17T21:37:39.709Z,2.45
2023-03-17T21:40:08.538Z,2.67
2023-03-17T21:42:36.594Z,2.53
2023-03-17T21:45:05.572Z,2.35
2023-03-17T21:47:36.397Z,2.30
2023-03-17T21:50:07.985Z,2.40
2023-03-17T21:52:36.246Z,2.53
2023-03-17T21:55:05.445Z,2.13
2023-03-17T21:57:34.125Z,2.67
2023-03-17T22:00:03.015Z,2.63
2023-03-17T22:02:41.783Z,2.30
2023-03-17T22:05:10.729Z,2.63
2023-03-17T22:07:41.013Z,2.75
2023-03-17T22:10:10.096Z,2.38
2023-03-17T22:12:39.066Z,2.15
2023-03-17T22:15:10.280Z,2.55
2023-03-17T22:17:39.808Z,2.78
2023-03-17T22:20:09.096Z,2.67
2023-03-17T22:22:37.571Z,2.60
2023-03-17T22:25:06.362Z,2.67
2023-03-17T22:27:34.773Z,2.50
2023-03-17T22:30:02.804Z,2.60
2023-03-17T22:32:30.872Z,2.88
2023-03-17T22:34:59.299Z,2.70
2023-03-17T22:37:28.337Z,2.42
2023-03-17T22:40:02.561Z,2.45
2023-03-17T22:42:31.530Z,2.63
2023-03-17T22:45:02.671Z,2.70
2023-03-17T22:47:31.627Z,2.80
2023-03-17T22:50:00.083Z,2.78
2023-03-17T22:52:28.893Z,2.88
2023-03-17T22:54:57.228Z,2.80
2023-03-17T22:57:25.448Z,2.50
2023-03-17T22:59:55.231Z,2.50
2023-03-17T23:02:23.405Z,2.50
2023-03-17T23:04:51.693Z,3.08
2023-03-17T23:07:20.570Z,2.50
2023-03-17T23:09:48.762Z,2.97
2023-03-17T23:12:17.559Z,2.97
2023-03-17T23:14:45.590Z,2.70
2023-03-17T23:17:13.923Z,3.03
2023-03-17T23:19:41.964Z,3.05
2023-03-17T23:22:09.856Z,2.85
2023-03-17T23:24:50.019Z,3.03
2023-03-17T23:27:17.952Z,2.90
2023-03-17T23:29:46.543Z,2.70
2023-03-17T23:32:14.617Z,3.00
2023-03-17T23:34:42.490Z,3.10
2023-03-17T23:37:10.632Z,2.88
2023-03-17T23:39:38.818Z,2.80
2023-03-17T23:42:07.079Z,2.70
2023-03-17T23:44:35.879Z,2.95
2023-03-17T23:47:04.288Z,3.00
2023-03-17T23:49:32.512Z,3.40
2023-03-17T23:52:00.658Z,3.20
2023-03-17T23:54:28.786Z,3.67
2023-03-17T23:57:04.281Z,3.75
2023-03-17T23:59:33.021Z,3.85
